sensor_id;sensor_type;location;lat;lon;timestamp;P1;durP1;ratioP1;P2;durP2;ratioP2
66741;SDS011;53654;54.152;19.432;2022-10-30T00:00:11;4.90;;;3.20;;
66741;SDS011;53654;54.152;19.432;2022-10-30T00:02:59;5.20;;;3.30;;
66741;SDS011;53654;54.152;19.432;2022-10-30T00:05:29;6.90;;;3.30;;
66741;SDS011;53654;54.152;19.432;2022-10-30T00:07:57;5.60;;;3.40;;
66741;SDS011;53654;54.152;19.432;2022-10-30T00:10:45;9.70;;;5.90;;
66741;SDS011;53654;54.152;19.432;2022-10-30T00:13:13;8.60;;;6.00;;
66741;SDS011;53654;54.152;19.432;2022-10-30T00:15:51;16.40;;;10.60;;
66741;SDS011;53654;54.152;19.432;2022-10-30T00:18:20;11.40;;;6.70;;
66741;SDS011;53654;54.152;19.432;2022-10-30T00:21:07;10.90;;;7.20;;
66741;SDS011;53654;54.152;19.432;2022-10-30T00:23:48;11.50;;;6.90;;
66741;SDS011;53654;54.152;19.432;2022-10-30T00:26:18;10.70;;;6.60;;
66741;SDS011;53654;54.152;19.432;2022-10-30T00:29:07;10.20;;;6.10;;
66741;SDS011;53654;54.152;19.432;2022-10-30T00:31:52;8.40;;;5.50;;
66741;SDS011;53654;54.152;19.432;2022-10-30T00:34:20;8.80;;;6.30;;
66741;SDS011;53654;54.152;19.432;2022-10-30T00:36:48;8.60;;;6.00;;
66741;SDS011;53654;54.152;19.432;2022-10-30T00:39:17;9.30;;;6.10;;
66741;SDS011;53654;54.152;19.432;2022-10-30T00:41:45;11.80;;;6.60;;
66741;SDS011;53654;54.152;19.432;2022-10-30T00:47:27;9.90;;;7.10;;
66741;SDS011;53654;54.152;19.432;2022-10-30T00:50:04;8.70;;;6.20;;
66741;SDS011;53654;54.152;19.432;2022-10-30T00:52:48;8.00;;;4.90;;
66741;SDS011;53654;54.152;19.432;2022-10-30T00:55:41;7.70;;;3.90;;
66741;SDS011;53654;54.152;19.432;2022-10-30T00:58:15;6.60;;;4.00;;
66741;SDS011;53654;54.152;19.432;2022-10-30T01:01:04;6.70;;;3.90;;
66741;SDS011;53654;54.152;19.432;2022-10-30T01:03:37;6.60;;;3.90;;
66741;SDS011;53654;54.152;19.432;2022-10-30T01:06:24;6.00;;;4.20;;
66741;SDS011;53654;54.152;19.432;2022-10-30T01:08:55;6.60;;;4.00;;
66741;SDS011;53654;54.152;19.432;2022-10-30T01:11:27;10.40;;;6.30;;
66741;SDS011;53654;54.152;19.432;2022-10-30T01:13:57;12.10;;;7.30;;
66741;SDS011;53654;54.152;19.432;2022-10-30T01:16:37;23.10;;;13.30;;
66741;SDS011;53654;54.152;19.432;2022-10-30T01:19:39;16.50;;;9.50;;
66741;SDS011;53654;54.152;19.432;2022-10-30T01:36:56;8.00;;;5.00;;
66741;SDS011;53654;54.152;19.432;2022-10-30T01:39:47;7.90;;;4.40;;
66741;SDS011;53654;54.152;19.432;2022-10-30T01:50:31;5.20;;;4.00;;
66741;SDS011;53654;54.152;19.432;2022-10-30T01:55:56;5.50;;;4.30;;
66741;SDS011;53654;54.152;19.432;2022-10-30T01:58:40;5.60;;;4.20;;
66741;SDS011;53654;54.152;19.432;2022-10-30T02:01:14;6.80;;;4.20;;
66741;SDS011;53654;54.152;19.432;2022-10-30T02:04:01;7.70;;;4.70;;
66741;SDS011;53654;54.152;19.432;2022-10-30T02:06:35;6.70;;;4.50;;
66741;SDS011;53654;54.152;19.432;2022-10-30T02:09:05;7.80;;;4.80;;
66741;SDS011;53654;54.152;19.432;2022-10-30T02:11:51;7.50;;;5.00;;
66741;SDS011;53654;54.152;19.432;2022-10-30T02:14:38;7.50;;;5.10;;
66741;SDS011;53654;54.152;19.432;2022-10-30T02:17:10;7.80;;;4.70;;
66741;SDS011;53654;54.152;19.432;2022-10-30T02:19:56;8.20;;;4.40;;
66741;SDS011;53654;54.152;19.432;2022-10-30T02:22:24;7.30;;;4.50;;
66741;SDS011;53654;54.152;19.432;2022-10-30T02:25:10;6.10;;;4.20;;
66741;SDS011;53654;54.152;19.432;2022-10-30T02:27:55;5.00;;;4.00;;
66741;SDS011;53654;54.152;19.432;2022-10-30T02:30:40;6.00;;;4.10;;
66741;SDS011;53654;54.152;19.432;2022-10-30T02:33:12;7.70;;;3.90;;
66741;SDS011;53654;54.152;19.432;2022-10-30T02:35:57;5.70;;;3.90;;
66741;SDS011;53654;54.152;19.432;2022-10-30T02:38:43;5.60;;;4.00;;
66741;SDS011;53654;54.152;19.432;2022-10-30T02:41:29;8.10;;;4.20;;
66741;SDS011;53654;54.152;19.432;2022-10-30T02:44:14;6.10;;;4.40;;
66741;SDS011;53654;54.152;19.432;2022-10-30T02:46:42;7.40;;;4.30;;
66741;SDS011;53654;54.152;19.432;2022-10-30T02:49:28;6.30;;;4.40;;
66741;SDS011;53654;54.152;19.432;2022-10-30T02:51:56;7.50;;;4.60;;
66741;SDS011;53654;54.152;19.432;2022-10-30T02:54:24;6.20;;;4.30;;
66741;SDS011;53654;54.152;19.432;2022-10-30T02:57:10;6.80;;;4.50;;
66741;SDS011;53654;54.152;19.432;2022-10-30T02:59:55;7.90;;;4.30;;
66741;SDS011;53654;54.152;19.432;2022-10-30T03:02:23;8.00;;;4.30;;
66741;SDS011;53654;54.152;19.432;2022-10-30T03:04:51;7.70;;;4.60;;
66741;SDS011;53654;54.152;19.432;2022-10-30T03:07:19;6.10;;;4.60;;
66741;SDS011;53654;54.152;19.432;2022-10-30T03:10:04;6.90;;;4.90;;
66741;SDS011;53654;54.152;19.432;2022-10-30T03:12:32;9.00;;;5.00;;
66741;SDS011;53654;54.152;19.432;2022-10-30T03:15:18;7.40;;;4.80;;
66741;SDS011;53654;54.152;19.432;2022-10-30T03:18:03;7.60;;;4.80;;
66741;SDS011;53654;54.152;19.432;2022-10-30T03:20:31;7.70;;;5.10;;
66741;SDS011;53654;54.152;19.432;2022-10-30T03:22:59;7.00;;;5.00;;
66741;SDS011;53654;54.152;19.432;2022-10-30T03:25:45;9.70;;;5.80;;
66741;SDS011;53654;54.152;19.432;2022-10-30T03:28:14;9.00;;;5.20;;
66741;SDS011;53654;54.152;19.432;2022-10-30T03:30:42;8.30;;;5.40;;
66741;SDS011;53654;54.152;19.432;2022-10-30T03:33:11;8.60;;;5.70;;
66741;SDS011;53654;54.152;19.432;2022-10-30T03:35:39;6.60;;;4.50;;
66741;SDS011;53654;54.152;19.432;2022-10-30T03:38:07;7.10;;;4.80;;
66741;SDS011;53654;54.152;19.432;2022-10-30T03:40:35;6.20;;;4.50;;
66741;SDS011;53654;54.152;19.432;2022-10-30T03:43:03;5.20;;;4.20;;
66741;SDS011;53654;54.152;19.432;2022-10-30T03:45:34;7.00;;;4.40;;
66741;SDS011;53654;54.152;19.432;2022-10-30T03:48:22;6.90;;;4.20;;
66741;SDS011;53654;54.152;19.432;2022-10-30T03:50:53;6.80;;;4.40;;
66741;SDS011;53654;54.152;19.432;2022-10-30T03:53:22;7.40;;;5.00;;
66741;SDS011;53654;54.152;19.432;2022-10-30T03:56:10;8.20;;;5.30;;
66741;SDS011;53654;54.152;19.432;2022-10-30T03:58:46;12.20;;;10.80;;
66741;SDS011;53654;54.152;19.432;2022-10-30T04:01:17;9.60;;;6.50;;
66741;SDS011;53654;54.152;19.432;2022-10-30T04:03:48;10.50;;;7.90;;
66741;SDS011;53654;54.152;19.432;2022-10-30T04:06:16;11.40;;;8.00;;
66741;SDS011;53654;54.152;19.432;2022-10-30T04:08:44;10.00;;;7.90;;
66741;SDS011;53654;54.152;19.432;2022-10-30T04:11:12;9.20;;;7.10;;
66741;SDS011;53654;54.152;19.432;2022-10-30T04:13:40;8.20;;;6.40;;
66741;SDS011;53654;54.152;19.432;2022-10-30T04:16:08;9.20;;;5.90;;
66741;SDS011;53654;54.152;19.432;2022-10-30T04:18:36;7.50;;;5.50;;
66741;SDS011;53654;54.152;19.432;2022-10-30T04:21:04;6.70;;;5.00;;
66741;SDS011;53654;54.152;19.432;2022-10-30T04:23:34;7.30;;;4.80;;
66741;SDS011;53654;54.152;19.432;2022-10-30T04:26:02;5.70;;;4.20;;
66741;SDS011;53654;54.152;19.432;2022-10-30T04:28:32;6.00;;;4.50;;
66741;SDS011;53654;54.152;19.432;2022-10-30T04:31:18;6.00;;;4.40;;
66741;SDS011;53654;54.152;19.432;2022-10-30T04:33:46;5.90;;;4.30;;
66741;SDS011;53654;54.152;19.432;2022-10-30T04:36:14;6.60;;;4.60;;
66741;SDS011;53654;54.152;19.432;2022-10-30T04:39:02;5.70;;;4.60;;
66741;SDS011;53654;54.152;19.432;2022-10-30T04:41:31;6.60;;;4.40;;
66741;SDS011;53654;54.152;19.432;2022-10-30T04:44:06;7.40;;;4.40;;
66741;SDS011;53654;54.152;19.432;2022-10-30T04:46:34;8.00;;;4.50;;
66741;SDS011;53654;54.152;19.432;2022-10-30T04:49:07;6.50;;;4.60;;
66741;SDS011;53654;54.152;19.432;2022-10-30T04:51:35;7.00;;;4.60;;
66741;SDS011;53654;54.152;19.432;2022-10-30T04:54:04;8.50;;;5.10;;
66741;SDS011;53654;54.152;19.432;2022-10-30T04:56:32;8.60;;;4.70;;
66741;SDS011;53654;54.152;19.432;2022-10-30T04:59:00;8.00;;;5.00;;
66741;SDS011;53654;54.152;19.432;2022-10-30T05:01:28;7.70;;;4.90;;
66741;SDS011;53654;54.152;19.432;2022-10-30T05:03:56;12.00;;;8.50;;
66741;SDS011;53654;54.152;19.432;2022-10-30T05:06:26;12.10;;;7.70;;
66741;SDS011;53654;54.152;19.432;2022-10-30T05:08:57;9.50;;;7.00;;
66741;SDS011;53654;54.152;19.432;2022-10-30T05:11:38;10.40;;;6.80;;
66741;SDS011;53654;54.152;19.432;2022-10-30T05:14:26;10.60;;;6.50;;
66741;SDS011;53654;54.152;19.432;2022-10-30T05:16:56;8.40;;;5.70;;
66741;SDS011;53654;54.152;19.432;2022-10-30T05:19:24;8.80;;;6.10;;
66741;SDS011;53654;54.152;19.432;2022-10-30T05:21:56;8.80;;;5.90;;
66741;SDS011;53654;54.152;19.432;2022-10-30T05:24:24;8.80;;;6.30;;
66741;SDS011;53654;54.152;19.432;2022-10-30T05:26:52;9.80;;;6.50;;
66741;SDS011;53654;54.152;19.432;2022-10-30T05:29:19;9.40;;;6.30;;
66741;SDS011;53654;54.152;19.432;2022-10-30T05:31:47;10.20;;;6.90;;
66741;SDS011;53654;54.152;19.432;2022-10-30T05:34:15;18.30;;;11.40;;
66741;SDS011;53654;54.152;19.432;2022-10-30T05:36:44;25.10;;;18.10;;
66741;SDS011;53654;54.152;19.432;2022-10-30T05:39:13;26.50;;;19.80;;
66741;SDS011;53654;54.152;19.432;2022-10-30T05:41:44;23.70;;;19.10;;
66741;SDS011;53654;54.152;19.432;2022-10-30T05:44:12;23.50;;;17.50;;
66741;SDS011;53654;54.152;19.432;2022-10-30T05:46:41;23.20;;;18.80;;
66741;SDS011;53654;54.152;19.432;2022-10-30T05:49:23;26.30;;;20.00;;
66741;SDS011;53654;54.152;19.432;2022-10-30T05:51:52;24.00;;;19.40;;
66741;SDS011;53654;54.152;19.432;2022-10-30T05:54:20;24.40;;;19.30;;
66741;SDS011;53654;54.152;19.432;2022-10-30T05:57:14;24.00;;;19.90;;
66741;SDS011;53654;54.152;19.432;2022-10-30T05:59:43;28.50;;;23.80;;
66741;SDS011;53654;54.152;19.432;2022-10-30T06:02:11;36.60;;;32.70;;
66741;SDS011;53654;54.152;19.432;2022-10-30T06:04:39;35.50;;;31.50;;
66741;SDS011;53654;54.152;19.432;2022-10-30T06:07:29;31.20;;;27.90;;
66741;SDS011;53654;54.152;19.432;2022-10-30T06:10:14;25.00;;;22.30;;
66741;SDS011;53654;54.152;19.432;2022-10-30T06:13:03;20.10;;;17.90;;
66741;SDS011;53654;54.152;19.432;2022-10-30T06:15:59;17.30;;;13.70;;
66741;SDS011;53654;54.152;19.432;2022-10-30T06:18:41;16.50;;;14.50;;
66741;SDS011;53654;54.152;19.432;2022-10-30T06:21:11;15.20;;;13.60;;
66741;SDS011;53654;54.152;19.432;2022-10-30T06:24:04;15.70;;;14.10;;
66741;SDS011;53654;54.152;19.432;2022-10-30T06:26:40;16.60;;;13.70;;
66741;SDS011;53654;54.152;19.432;2022-10-30T06:29:11;13.70;;;11.40;;
66741;SDS011;53654;54.152;19.432;2022-10-30T06:31:39;13.20;;;11.80;;
66741;SDS011;53654;54.152;19.432;2022-10-30T06:34:07;13.50;;;11.20;;
66741;SDS011;53654;54.152;19.432;2022-10-30T06:36:55;14.00;;;11.50;;
66741;SDS011;53654;54.152;19.432;2022-10-30T06:39:23;12.60;;;9.60;;
66741;SDS011;53654;54.152;19.432;2022-10-30T06:42:17;10.70;;;9.20;;
66741;SDS011;53654;54.152;19.432;2022-10-30T06:45:05;11.60;;;8.80;;
66741;SDS011;53654;54.152;19.432;2022-10-30T06:47:52;10.10;;;7.70;;
66741;SDS011;53654;54.152;19.432;2022-10-30T06:50:20;10.40;;;7.30;;
66741;SDS011;53654;54.152;19.432;2022-10-30T06:52:48;7.90;;;6.90;;
66741;SDS011;53654;54.152;19.432;2022-10-30T06:55:16;9.50;;;6.80;;
66741;SDS011;53654;54.152;19.432;2022-10-30T06:58:05;8.00;;;6.80;;
66741;SDS011;53654;54.152;19.432;2022-10-30T07:00:51;7.60;;;6.30;;
66741;SDS011;53654;54.152;19.432;2022-10-30T07:03:34;9.40;;;7.00;;
66741;SDS011;53654;54.152;19.432;2022-10-30T07:06:02;9.80;;;7.80;;
66741;SDS011;53654;54.152;19.432;2022-10-30T07:08:31;11.30;;;9.30;;
66741;SDS011;53654;54.152;19.432;2022-10-30T07:11:00;12.60;;;9.00;;
66741;SDS011;53654;54.152;19.432;2022-10-30T07:13:46;11.30;;;9.00;;
66741;SDS011;53654;54.152;19.432;2022-10-30T07:16:47;14.00;;;10.60;;
66741;SDS011;53654;54.152;19.432;2022-10-30T07:19:32;14.50;;;9.90;;
66741;SDS011;53654;54.152;19.432;2022-10-30T07:22:01;13.50;;;9.70;;
66741;SDS011;53654;54.152;19.432;2022-10-30T07:24:47;11.50;;;9.70;;
66741;SDS011;53654;54.152;19.432;2022-10-30T07:27:42;12.50;;;9.70;;
66741;SDS011;53654;54.152;19.432;2022-10-30T07:30:40;10.00;;;8.90;;
66741;SDS011;53654;54.152;19.432;2022-10-30T07:33:48;11.60;;;8.50;;
66741;SDS011;53654;54.152;19.432;2022-10-30T07:36:53;12.00;;;8.50;;
66741;SDS011;53654;54.152;19.432;2022-10-30T07:40:02;9.50;;;8.00;;
66741;SDS011;53654;54.152;19.432;2022-10-30T07:42:54;10.80;;;7.50;;
66741;SDS011;53654;54.152;19.432;2022-10-30T07:46:10;9.50;;;7.40;;
66741;SDS011;53654;54.152;19.432;2022-10-30T07:48:58;10.30;;;8.10;;
66741;SDS011;53654;54.152;19.432;2022-10-30T07:51:41;10.40;;;8.50;;
66741;SDS011;53654;54.152;19.432;2022-10-30T07:54:10;11.90;;;9.30;;
66741;SDS011;53654;54.152;19.432;2022-10-30T07:56:38;12.20;;;9.20;;
66741;SDS011;53654;54.152;19.432;2022-10-30T07:59:35;11.70;;;9.00;;
66741;SDS011;53654;54.152;19.432;2022-10-30T08:02:12;11.60;;;8.90;;
66741;SDS011;53654;54.152;19.432;2022-10-30T08:05:03;12.10;;;9.00;;
66741;SDS011;53654;54.152;19.432;2022-10-30T08:08:00;10.50;;;9.00;;
66741;SDS011;53654;54.152;19.432;2022-10-30T08:10:28;11.50;;;9.20;;
66741;SDS011;53654;54.152;19.432;2022-10-30T08:12:56;12.20;;;9.40;;
66741;SDS011;53654;54.152;19.432;2022-10-30T08:15:25;9.90;;;8.40;;
66741;SDS011;53654;54.152;19.432;2022-10-30T08:17:53;12.20;;;10.20;;
66741;SDS011;53654;54.152;19.432;2022-10-30T08:20:39;13.00;;;11.60;;
66741;SDS011;53654;54.152;19.432;2022-10-30T08:23:08;12.10;;;10.90;;
66741;SDS011;53654;54.152;19.432;2022-10-30T08:25:36;12.60;;;11.30;;
66741;SDS011;53654;54.152;19.432;2022-10-30T08:28:05;11.30;;;9.90;;
66741;SDS011;53654;54.152;19.432;2022-10-30T08:30:35;11.60;;;9.70;;
66741;SDS011;53654;54.152;19.432;2022-10-30T08:33:06;11.60;;;9.50;;
66741;SDS011;53654;54.152;19.432;2022-10-30T08:36:13;11.20;;;9.00;;
66741;SDS011;53654;54.152;19.432;2022-10-30T08:38:58;11.10;;;8.60;;
66741;SDS011;53654;54.152;19.432;2022-10-30T08:42:03;9.80;;;8.20;;
66741;SDS011;53654;54.152;19.432;2022-10-30T08:44:53;10.80;;;8.60;;
66741;SDS011;53654;54.152;19.432;2022-10-30T08:47:35;11.40;;;8.80;;
66741;SDS011;53654;54.152;19.432;2022-10-30T08:50:03;11.10;;;8.80;;
66741;SDS011;53654;54.152;19.432;2022-10-30T08:52:32;10.90;;;9.00;;
66741;SDS011;53654;54.152;19.432;2022-10-30T08:55:00;10.90;;;8.80;;
66741;SDS011;53654;54.152;19.432;2022-10-30T08:57:30;10.80;;;7.60;;
66741;SDS011;53654;54.152;19.432;2022-10-30T09:00:19;9.70;;;7.10;;
66741;SDS011;53654;54.152;19.432;2022-10-30T09:03:06;8.80;;;6.20;;
66741;SDS011;53654;54.152;19.432;2022-10-30T09:05:52;9.20;;;5.80;;
66741;SDS011;53654;54.152;19.432;2022-10-30T09:08:43;7.00;;;4.70;;
66741;SDS011;53654;54.152;19.432;2022-10-30T09:11:28;8.40;;;5.00;;
66741;SDS011;53654;54.152;19.432;2022-10-30T09:13:56;8.40;;;5.00;;
66741;SDS011;53654;54.152;19.432;2022-10-30T09:16:24;7.30;;;4.80;;
66741;SDS011;53654;54.152;19.432;2022-10-30T09:18:52;8.60;;;5.00;;
66741;SDS011;53654;54.152;19.432;2022-10-30T09:21:21;10.20;;;5.20;;
66741;SDS011;53654;54.152;19.432;2022-10-30T09:23:51;8.50;;;4.70;;
66741;SDS011;53654;54.152;19.432;2022-10-30T09:26:50;6.70;;;4.80;;
66741;SDS011;53654;54.152;19.432;2022-10-30T09:29:43;6.60;;;4.50;;
66741;SDS011;53654;54.152;19.432;2022-10-30T09:32:22;7.90;;;4.60;;
66741;SDS011;53654;54.152;19.432;2022-10-30T09:34:56;8.30;;;5.00;;
66741;SDS011;53654;54.152;19.432;2022-10-30T09:37:26;8.60;;;5.10;;
66741;SDS011;53654;54.152;19.432;2022-10-30T09:39:58;6.80;;;4.60;;
66741;SDS011;53654;54.152;19.432;2022-10-30T09:42:46;8.20;;;5.00;;
66741;SDS011;53654;54.152;19.432;2022-10-30T09:50:56;8.60;;;5.20;;
66741;SDS011;53654;54.152;19.432;2022-10-30T09:56:23;6.80;;;4.70;;
66741;SDS011;53654;54.152;19.432;2022-10-30T09:58:58;8.40;;;4.70;;
66741;SDS011;53654;54.152;19.432;2022-10-30T10:04:22;8.60;;;4.40;;
66741;SDS011;53654;54.152;19.432;2022-10-30T10:07:31;6.10;;;4.00;;
66741;SDS011;53654;54.152;19.432;2022-10-30T10:10:27;6.40;;;4.40;;
66741;SDS011;53654;54.152;19.432;2022-10-30T10:13:08;7.30;;;4.10;;
66741;SDS011;53654;54.152;19.432;2022-10-30T10:15:50;6.90;;;4.10;;
66741;SDS011;53654;54.152;19.432;2022-10-30T10:18:29;7.60;;;4.10;;
66741;SDS011;53654;54.152;19.432;2022-10-30T10:21:48;7.20;;;3.80;;
66741;SDS011;53654;54.152;19.432;2022-10-30T10:24:21;6.50;;;3.90;;
66741;SDS011;53654;54.152;19.432;2022-10-30T10:50:26;6.70;;;3.20;;
66741;SDS011;53654;54.152;19.432;2022-10-30T10:55:53;6.30;;;3.30;;
66741;SDS011;53654;54.152;19.432;2022-10-30T11:00:59;7.10;;;4.00;;
66741;SDS011;53654;54.152;19.432;2022-10-30T11:06:33;7.00;;;3.40;;
66741;SDS011;53654;54.152;19.432;2022-10-30T11:11:49;5.90;;;3.40;;
66741;SDS011;53654;54.152;19.432;2022-10-30T11:14:20;6.80;;;3.70;;
66741;SDS011;53654;54.152;19.432;2022-10-30T11:19:45;5.10;;;3.20;;
66741;SDS011;53654;54.152;19.432;2022-10-30T11:22:23;6.10;;;3.50;;
66741;SDS011;53654;54.152;19.432;2022-10-30T11:24:56;6.10;;;3.20;;
66741;SDS011;53654;54.152;19.432;2022-10-30T11:27:58;8.20;;;4.50;;
66741;SDS011;53654;54.152;19.432;2022-10-30T11:30:27;7.20;;;3.50;;
66741;SDS011;53654;54.152;19.432;2022-10-30T11:32:57;6.30;;;3.60;;
66741;SDS011;53654;54.152;19.432;2022-10-30T11:35:26;5.90;;;3.30;;
66741;SDS011;53654;54.152;19.432;2022-10-30T11:40:53;5.30;;;3.10;;
66741;SDS011;53654;54.152;19.432;2022-10-30T11:43:21;6.40;;;3.40;;
66741;SDS011;53654;54.152;19.432;2022-10-30T11:45:52;5.80;;;3.00;;
66741;SDS011;53654;54.152;19.432;2022-10-30T11:48:28;4.20;;;3.20;;
66741;SDS011;53654;54.152;19.432;2022-10-30T11:50:59;5.00;;;3.70;;
66741;SDS011;53654;54.152;19.432;2022-10-30T11:53:31;5.60;;;4.20;;
66741;SDS011;53654;54.152;19.432;2022-10-30T11:56:03;7.30;;;4.50;;
66741;SDS011;53654;54.152;19.432;2022-10-30T11:58:42;5.80;;;4.50;;
66741;SDS011;53654;54.152;19.432;2022-10-30T12:01:13;6.80;;;4.30;;
66741;SDS011;53654;54.152;19.432;2022-10-30T12:03:48;6.20;;;4.60;;
66741;SDS011;53654;54.152;19.432;2022-10-30T12:09:03;6.90;;;4.50;;
66741;SDS011;53654;54.152;19.432;2022-10-30T12:11:56;7.30;;;4.50;;
66741;SDS011;53654;54.152;19.432;2022-10-30T12:14:28;5.20;;;4.10;;
66741;SDS011;53654;54.152;19.432;2022-10-30T12:16:56;5.70;;;3.90;;
66741;SDS011;53654;54.152;19.432;2022-10-30T12:19:52;6.30;;;4.20;;
66741;SDS011;53654;54.152;19.432;2022-10-30T12:22:33;5.30;;;3.80;;
66741;SDS011;53654;54.152;19.432;2022-10-30T12:25:03;5.90;;;3.90;;
66741;SDS011;53654;54.152;19.432;2022-10-30T12:27:58;7.30;;;4.80;;
66741;SDS011;53654;54.152;19.432;2022-10-30T12:36:19;5.60;;;3.90;;
66741;SDS011;53654;54.152;19.432;2022-10-30T12:39:09;5.10;;;4.20;;
66741;SDS011;53654;54.152;19.432;2022-10-30T12:41:39;5.70;;;3.80;;
66741;SDS011;53654;54.152;19.432;2022-10-30T12:44:15;6.50;;;4.20;;
66741;SDS011;53654;54.152;19.432;2022-10-30T12:49:42;6.40;;;3.60;;
66741;SDS011;53654;54.152;19.432;2022-10-30T13:01:40;6.50;;;4.30;;
66741;SDS011;53654;54.152;19.432;2022-10-30T13:06:22;6.90;;;4.80;;
66741;SDS011;53654;54.152;19.432;2022-10-30T13:15:09;5.40;;;4.30;;
66741;SDS011;53654;54.152;19.432;2022-10-30T13:17:48;7.00;;;4.60;;
66741;SDS011;53654;54.152;19.432;2022-10-30T13:20:16;6.40;;;4.30;;
66741;SDS011;53654;54.152;19.432;2022-10-30T13:30:58;6.50;;;4.70;;
66741;SDS011;53654;54.152;19.432;2022-10-30T13:33:36;5.50;;;4.90;;
66741;SDS011;53654;54.152;19.432;2022-10-30T13:36:31;4.70;;;5.20;;
66741;SDS011;53654;54.152;19.432;2022-10-30T13:42:02;6.40;;;4.60;;
66741;SDS011;53654;54.152;19.432;2022-10-30T13:50:18;5.60;;;4.90;;
66741;SDS011;53654;54.152;19.432;2022-10-30T13:53:04;6.80;;;5.50;;
66741;SDS011;53654;54.152;19.432;2022-10-30T13:55:39;8.10;;;7.30;;
66741;SDS011;53654;54.152;19.432;2022-10-30T14:01:08;8.90;;;7.70;;
66741;SDS011;53654;54.152;19.432;2022-10-30T14:04:04;9.20;;;8.00;;
66741;SDS011;53654;54.152;19.432;2022-10-30T14:21:27;6.30;;;5.30;;
66741;SDS011;53654;54.152;19.432;2022-10-30T14:24:01;6.40;;;5.80;;
66741;SDS011;53654;54.152;19.432;2022-10-30T14:26:50;6.00;;;5.50;;
66741;SDS011;53654;54.152;19.432;2022-10-30T14:32:01;6.80;;;6.10;;
66741;SDS011;53654;54.152;19.432;2022-10-30T14:43:22;8.30;;;7.40;;
66741;SDS011;53654;54.152;19.432;2022-10-30T14:45:58;8.40;;;7.60;;
66741;SDS011;53654;54.152;19.432;2022-10-30T14:48:56;9.10;;;8.20;;
66741;SDS011;53654;54.152;19.432;2022-10-30T14:56:51;9.70;;;8.70;;
66741;SDS011;53654;54.152;19.432;2022-10-30T14:59:22;10.00;;;9.00;;
66741;SDS011;53654;54.152;19.432;2022-10-30T15:07:37;14.40;;;13.00;;
66741;SDS011;53654;54.152;19.432;2022-10-30T15:13:38;14.80;;;13.30;;
66741;SDS011;53654;54.152;19.432;2022-10-30T15:15:56;14.50;;;13.00;;
66741;SDS011;53654;54.152;19.432;2022-10-30T15:18:25;14.40;;;12.90;;
66741;SDS011;53654;54.152;19.432;2022-10-30T15:21:00;15.20;;;13.70;;
66741;SDS011;53654;54.152;19.432;2022-10-30T15:23:31;16.40;;;14.60;;
66741;SDS011;53654;54.152;19.432;2022-10-30T15:26:06;19.50;;;17.50;;
66741;SDS011;53654;54.152;19.432;2022-10-30T15:28:43;18.40;;;16.50;;
66741;SDS011;53654;54.152;19.432;2022-10-30T15:33:44;18.60;;;16.70;;
66741;SDS011;53654;54.152;19.432;2022-10-30T15:39:07;17.00;;;15.30;;
66741;SDS011;53654;54.152;19.432;2022-10-30T15:41:39;16.90;;;15.20;;
66741;SDS011;53654;54.152;19.432;2022-10-30T15:44:35;16.00;;;14.40;;
66741;SDS011;53654;54.152;19.432;2022-10-30T15:47:11;13.60;;;12.10;;
66741;SDS011;53654;54.152;19.432;2022-10-30T15:49:46;12.00;;;10.80;;
66741;SDS011;53654;54.152;19.432;2022-10-30T15:52:22;10.60;;;9.50;;
66741;SDS011;53654;54.152;19.432;2022-10-30T15:55:13;12.30;;;11.00;;
66741;SDS011;53654;54.152;19.432;2022-10-30T15:58:03;11.10;;;10.10;;
66741;SDS011;53654;54.152;19.432;2022-10-30T16:00:33;11.10;;;10.00;;
66741;SDS011;53654;54.152;19.432;2022-10-30T16:03:04;10.70;;;9.70;;
66741;SDS011;53654;54.152;19.432;2022-10-30T16:05:34;10.70;;;9.70;;
66741;SDS011;53654;54.152;19.432;2022-10-30T16:08:21;10.20;;;9.20;;
66741;SDS011;53654;54.152;19.432;2022-10-30T16:10:51;11.00;;;9.10;;
66741;SDS011;53654;54.152;19.432;2022-10-30T16:13:29;9.80;;;8.90;;
66741;SDS011;53654;54.152;19.432;2022-10-30T16:15:58;10.00;;;9.00;;
66741;SDS011;53654;54.152;19.432;2022-10-30T16:18:29;10.60;;;9.60;;
66741;SDS011;53654;54.152;19.432;2022-10-30T16:21:00;9.90;;;9.10;;
66741;SDS011;53654;54.152;19.432;2022-10-30T16:23:38;10.40;;;9.30;;
66741;SDS011;53654;54.152;19.432;2022-10-30T16:26:19;10.60;;;9.60;;
66741;SDS011;53654;54.152;19.432;2022-10-30T16:28:50;11.80;;;10.60;;
66741;SDS011;53654;54.152;19.432;2022-10-30T16:31:18;13.50;;;11.90;;
66741;SDS011;53654;54.152;19.432;2022-10-30T16:33:47;14.10;;;12.80;;
66741;SDS011;53654;54.152;19.432;2022-10-30T16:36:16;15.00;;;13.30;;
66741;SDS011;53654;54.152;19.432;2022-10-30T16:38:45;17.00;;;14.70;;
66741;SDS011;53654;54.152;19.432;2022-10-30T16:41:15;14.60;;;13.20;;
66741;SDS011;53654;54.152;19.432;2022-10-30T16:44:15;14.40;;;12.90;;
66741;SDS011;53654;54.152;19.432;2022-10-30T16:49:35;15.00;;;13.50;;
66741;SDS011;53654;54.152;19.432;2022-10-30T16:52:05;14.80;;;13.30;;
66741;SDS011;53654;54.152;19.432;2022-10-30T16:55:01;14.60;;;13.10;;
66741;SDS011;53654;54.152;19.432;2022-10-30T16:57:54;15.40;;;13.80;;
66741;SDS011;53654;54.152;19.432;2022-10-30T17:00:25;15.80;;;14.30;;
66741;SDS011;53654;54.152;19.432;2022-10-30T17:03:04;15.40;;;13.70;;
66741;SDS011;53654;54.152;19.432;2022-10-30T17:05:55;14.90;;;13.50;;
66741;SDS011;53654;54.152;19.432;2022-10-30T17:08:26;14.40;;;12.80;;
66741;SDS011;53654;54.152;19.432;2022-10-30T17:11:16;11.80;;;10.60;;
66741;SDS011;53654;54.152;19.432;2022-10-30T17:18:59;11.80;;;10.60;;
66741;SDS011;53654;54.152;19.432;2022-10-30T17:21:48;11.10;;;9.50;;
66741;SDS011;53654;54.152;19.432;2022-10-30T17:24:37;10.90;;;9.40;;
66741;SDS011;53654;54.152;19.432;2022-10-30T17:27:06;11.50;;;9.60;;
66741;SDS011;53654;54.152;19.432;2022-10-30T17:29:53;10.30;;;9.30;;
66741;SDS011;53654;54.152;19.432;2022-10-30T17:32:23;11.30;;;10.20;;
66741;SDS011;53654;54.152;19.432;2022-10-30T17:35:13;11.20;;;10.10;;
66741;SDS011;53654;54.152;19.432;2022-10-30T17:37:43;11.10;;;10.00;;
66741;SDS011;53654;54.152;19.432;2022-10-30T17:40:11;10.90;;;9.80;;
66741;SDS011;53654;54.152;19.432;2022-10-30T17:42:40;11.70;;;10.60;;
66741;SDS011;53654;54.152;19.432;2022-10-30T17:45:09;12.90;;;11.60;;
66741;SDS011;53654;54.152;19.432;2022-10-30T17:47:40;12.20;;;11.00;;
66741;SDS011;53654;54.152;19.432;2022-10-30T17:50:08;12.80;;;11.50;;
66741;SDS011;53654;54.152;19.432;2022-10-30T17:52:36;15.40;;;13.80;;
66741;SDS011;53654;54.152;19.432;2022-10-30T17:55:16;16.20;;;14.50;;
66741;SDS011;53654;54.152;19.432;2022-10-30T17:57:50;18.20;;;16.20;;
66741;SDS011;53654;54.152;19.432;2022-10-30T18:00:18;24.30;;;19.90;;
66741;SDS011;53654;54.152;19.432;2022-10-30T18:02:46;22.00;;;19.40;;
66741;SDS011;53654;54.152;19.432;2022-10-30T18:05:17;18.30;;;16.40;;
66741;SDS011;53654;54.152;19.432;2022-10-30T18:07:48;18.80;;;15.60;;
66741;SDS011;53654;54.152;19.432;2022-10-30T18:10:21;15.20;;;13.60;;
66741;SDS011;53654;54.152;19.432;2022-10-30T18:12:49;13.80;;;12.40;;
66741;SDS011;53654;54.152;19.432;2022-10-30T18:18:05;14.30;;;12.80;;
66741;SDS011;53654;54.152;19.432;2022-10-30T18:20:33;14.70;;;13.30;;
66741;SDS011;53654;54.152;19.432;2022-10-30T18:23:02;15.90;;;14.30;;
66741;SDS011;53654;54.152;19.432;2022-10-30T18:25:32;16.40;;;14.60;;
66741;SDS011;53654;54.152;19.432;2022-10-30T18:28:02;15.70;;;14.10;;